sensor_id;sensor_type;location;lat;lon;timestamp;temperature;humidity
30385;DHT22;17181;51.002;4.096;2022-07-23T00:00:37;16.90;99.90
30385;DHT22;17181;51.002;4.096;2022-07-23T00:03:03;16.90;99.90
30385;DHT22;17181;51.002;4.096;2022-07-23T00:05:29;16.80;99.90
30385;DHT22;17181;51.002;4.096;2022-07-23T00:07:55;16.80;99.90
30385;DHT22;17181;51.002;4.096;2022-07-23T00:10:21;16.80;99.90
30385;DHT22;17181;51.002;4.096;2022-07-23T00:12:47;16.80;99.90
30385;DHT22;17181;51.002;4.096;2022-07-23T00:15:13;16.80;99.90
30385;DHT22;17181;51.002;4.096;2022-07-23T00:17:39;16.70;99.90
30385;DHT22;17181;51.002;4.096;2022-07-23T00:20:06;16.60;99.90
30385;DHT22;17181;51.002;4.096;2022-07-23T00:22:32;16.60;99.90
30385;DHT22;17181;51.002;4.096;2022-07-23T00:24:58;16.60;99.90
30385;DHT22;17181;51.002;4.096;2022-07-23T00:27:25;16.50;99.90
30385;DHT22;17181;51.002;4.096;2022-07-23T00:29:51;16.50;99.90
30385;DHT22;17181;51.002;4.096;2022-07-23T00:32:17;16.40;99.90
30385;DHT22;17181;51.002;4.096;2022-07-23T00:34:43;16.40;99.90
30385;DHT22;17181;51.002;4.096;2022-07-23T00:37:09;16.40;99.90
30385;DHT22;17181;51.002;4.096;2022-07-23T00:39:35;16.40;99.90
30385;DHT22;17181;51.002;4.096;2022-07-23T00:42:02;16.30;99.90
30385;DHT22;17181;51.002;4.096;2022-07-23T00:44:28;16.30;99.90
30385;DHT22;17181;51.002;4.096;2022-07-23T00:46:58;16.40;99.90
30385;DHT22;17181;51.002;4.096;2022-07-23T00:49:27;16.30;99.90
30385;DHT22;17181;51.002;4.096;2022-07-23T00:51:55;16.20;99.90
30385;DHT22;17181;51.002;4.096;2022-07-23T00:54:25;16.20;99.90
30385;DHT22;17181;51.002;4.096;2022-07-23T00:56:52;16.20;99.90
30385;DHT22;17181;51.002;4.096;2022-07-23T00:59:19;16.20;99.90
30385;DHT22;17181;51.002;4.096;2022-07-23T01:01:45;16.10;99.90
30385;DHT22;17181;51.002;4.096;2022-07-23T01:04:15;16.00;99.90
30385;DHT22;17181;51.002;4.096;2022-07-23T01:06:43;16.10;99.90
30385;DHT22;17181;51.002;4.096;2022-07-23T01:09:10;16.00;99.90
30385;DHT22;17181;51.002;4.096;2022-07-23T01:11:37;16.00;99.90
30385;DHT22;17181;51.002;4.096;2022-07-23T01:14:17;16.00;99.90
30385;DHT22;17181;51.002;4.096;2022-07-23T01:16:47;15.90;99.90
30385;DHT22;17181;51.002;4.096;2022-07-23T01:19:15;16.00;99.90
30385;DHT22;17181;51.002;4.096;2022-07-23T01:21:49;15.90;99.90
30385;DHT22;17181;51.002;4.096;2022-07-23T01:24:16;15.90;99.90
30385;DHT22;17181;51.002;4.096;2022-07-23T01:26:57;16.00;99.90
30385;DHT22;17181;51.002;4.096;2022-07-23T01:29:24;15.90;99.90
30385;DHT22;17181;51.002;4.096;2022-07-23T01:31:52;15.80;99.90
30385;DHT22;17181;51.002;4.096;2022-07-23T01:34:18;15.70;99.90
30385;DHT22;17181;51.002;4.096;2022-07-23T01:36:45;15.70;99.90
30385;DHT22;17181;51.002;4.096;2022-07-23T01:39:14;15.80;99.90
30385;DHT22;17181;51.002;4.096;2022-07-23T01:41:41;15.70;99.90
30385;DHT22;17181;51.002;4.096;2022-07-23T01:44:11;15.70;99.90
30385;DHT22;17181;51.002;4.096;2022-07-23T01:46:42;15.60;99.90
30385;DHT22;17181;51.002;4.096;2022-07-23T01:49:09;15.70;99.90
30385;DHT22;17181;51.002;4.096;2022-07-23T01:52:14;15.60;99.90
30385;DHT22;17181;51.002;4.096;2022-07-23T01:54:45;15.70;99.90
30385;DHT22;17181;51.002;4.096;2022-07-23T01:57:14;15.60;99.90
30385;DHT22;17181;51.002;4.096;2022-07-23T01:59:40;15.50;99.90
30385;DHT22;17181;51.002;4.096;2022-07-23T02:02:10;15.50;99.90
30385;DHT22;17181;51.002;4.096;2022-07-23T02:04:37;15.50;99.90
30385;DHT22;17181;51.002;4.096;2022-07-23T02:07:04;15.40;99.90
30385;DHT22;17181;51.002;4.096;2022-07-23T02:09:31;15.40;99.90
30385;DHT22;17181;51.002;4.096;2022-07-23T02:11:57;15.40;99.90
30385;DHT22;17181;51.002;4.096;2022-07-23T02:14:25;15.30;99.90
30385;DHT22;17181;51.002;4.096;2022-07-23T02:16:51;15.40;99.90
30385;DHT22;17181;51.002;4.096;2022-07-23T02:19:17;15.30;99.90
30385;DHT22;17181;51.002;4.096;2022-07-23T02:21:44;15.20;99.90
30385;DHT22;17181;51.002;4.096;2022-07-23T02:24:10;15.20;99.90
30385;DHT22;17181;51.002;4.096;2022-07-23T02:26:37;15.10;99.90
30385;DHT22;17181;51.002;4.096;2022-07-23T02:29:05;15.30;99.90
30385;DHT22;17181;51.002;4.096;2022-07-23T02:31:32;15.10;99.90
30385;DHT22;17181;51.002;4.096;2022-07-23T02:33:59;15.10;99.90
30385;DHT22;17181;51.002;4.096;2022-07-23T02:36:25;15.10;99.90
30385;DHT22;17181;51.002;4.096;2022-07-23T02:38:52;15.10;99.90
30385;DHT22;17181;51.002;4.096;2022-07-23T02:41:19;15.00;99.90
30385;DHT22;17181;51.002;4.096;2022-07-23T02:43:45;15.00;99.90
30385;DHT22;17181;51.002;4.096;2022-07-23T02:46:13;15.00;99.90
30385;DHT22;17181;51.002;4.096;2022-07-23T02:48:39;14.90;99.90
30385;DHT22;17181;51.002;4.096;2022-07-23T02:51:06;15.00;99.90
30385;DHT22;17181;51.002;4.096;2022-07-23T02:53:37;14.90;99.90
30385;DHT22;17181;51.002;4.096;2022-07-23T02:56:04;14.80;99.90
30385;DHT22;17181;51.002;4.096;2022-07-23T02:58:30;14.80;99.90
30385;DHT22;17181;51.002;4.096;2022-07-23T03:00:56;14.90;99.90
30385;DHT22;17181;51.002;4.096;2022-07-23T03:03:25;14.80;99.90
30385;DHT22;17181;51.002;4.096;2022-07-23T03:05:51;14.80;99.90
30385;DHT22;17181;51.002;4.096;2022-07-23T03:08:18;14.90;99.90
30385;DHT22;17181;51.002;4.096;2022-07-23T03:10:49;14.80;99.90
30385;DHT22;17181;51.002;4.096;2022-07-23T03:13:20;14.80;99.90
30385;DHT22;17181;51.002;4.096;2022-07-23T03:15:46;14.80;99.90
30385;DHT22;17181;51.002;4.096;2022-07-23T03:18:13;14.90;99.90
30385;DHT22;17181;51.002;4.096;2022-07-23T03:20:41;14.80;99.90
30385;DHT22;17181;51.002;4.096;2022-07-23T03:23:09;14.80;99.90
30385;DHT22;17181;51.002;4.096;2022-07-23T03:25:37;14.80;99.90
30385;DHT22;17181;51.002;4.096;2022-07-23T03:28:03;14.70;99.90
30385;DHT22;17181;51.002;4.096;2022-07-23T03:30:30;14.60;99.90
30385;DHT22;17181;51.002;4.096;2022-07-23T03:32:56;14.80;99.90
30385;DHT22;17181;51.002;4.096;2022-07-23T03:35:23;14.70;99.90
30385;DHT22;17181;51.002;4.096;2022-07-23T03:38:04;14.60;99.90
30385;DHT22;17181;51.002;4.096;2022-07-23T03:40:31;14.70;99.90
30385;DHT22;17181;51.002;4.096;2022-07-23T03:42:57;14.60;99.90
30385;DHT22;17181;51.002;4.096;2022-07-23T03:45:24;14.80;99.90
30385;DHT22;17181;51.002;4.096;2022-07-23T03:47:50;14.70;99.90
30385;DHT22;17181;51.002;4.096;2022-07-23T03:50:17;14.70;99.90
30385;DHT22;17181;51.002;4.096;2022-07-23T03:52:44;14.70;99.90
30385;DHT22;17181;51.002;4.096;2022-07-23T03:55:11;14.60;99.90
30385;DHT22;17181;51.002;4.096;2022-07-23T03:57:40;14.70;99.90
30385;DHT22;17181;51.002;4.096;2022-07-23T04:00:10;14.60;99.90
30385;DHT22;17181;51.002;4.096;2022-07-23T04:02:39;14.70;99.90
30385;DHT22;17181;51.002;4.096;2022-07-23T04:05:07;14.50;99.90
30385;DHT22;17181;51.002;4.096;2022-07-23T04:07:33;14.50;99.90
30385;DHT22;17181;51.002;4.096;2022-07-23T04:10:00;14.50;99.90
30385;DHT22;17181;51.002;4.096;2022-07-23T04:12:26;14.50;99.90
30385;DHT22;17181;51.002;4.096;2022-07-23T04:14:53;14.60;99.90
30385;DHT22;17181;51.002;4.096;2022-07-23T04:17:19;14.50;99.90
30385;DHT22;17181;51.002;4.096;2022-07-23T04:19:46;14.50;99.90
30385;DHT22;17181;51.002;4.096;2022-07-23T04:22:16;14.50;99.90
30385;DHT22;17181;51.002;4.096;2022-07-23T04:24:42;14.50;99.90
30385;DHT22;17181;51.002;4.096;2022-07-23T04:27:09;14.50;99.90
30385;DHT22;17181;51.002;4.096;2022-07-23T04:29:36;14.30;99.90
30385;DHT22;17181;51.002;4.096;2022-07-23T04:32:02;14.50;99.90
30385;DHT22;17181;51.002;4.096;2022-07-23T04:34:28;14.50;99.90
30385;DHT22;17181;51.002;4.096;2022-07-23T04:36:59;14.40;99.90
30385;DHT22;17181;51.002;4.096;2022-07-23T04:39:28;14.40;99.90
30385;DHT22;17181;51.002;4.096;2022-07-23T04:41:58;14.40;99.90
30385;DHT22;17181;51.002;4.096;2022-07-23T04:44:24;14.50;99.90
30385;DHT22;17181;51.002;4.096;2022-07-23T04:46:53;14.30;99.90
30385;DHT22;17181;51.002;4.096;2022-07-23T04:49:20;14.50;99.90
30385;DHT22;17181;51.002;4.096;2022-07-23T04:51:46;14.50;99.90
30385;DHT22;17181;51.002;4.096;2022-07-23T04:54:13;14.40;99.90
30385;DHT22;17181;51.002;4.096;2022-07-23T04:56:39;14.60;99.90
30385;DHT22;17181;51.002;4.096;2022-07-23T04:59:05;14.70;99.90
30385;DHT22;17181;51.002;4.096;2022-07-23T05:01:34;14.70;99.90
30385;DHT22;17181;51.002;4.096;2022-07-23T05:04:01;14.80;99.90
30385;DHT22;17181;51.002;4.096;2022-07-23T05:06:31;14.80;99.90
30385;DHT22;17181;51.002;4.096;2022-07-23T05:08:58;15.00;99.90
30385;DHT22;17181;51.002;4.096;2022-07-23T05:11:24;15.10;99.90
30385;DHT22;17181;51.002;4.096;2022-07-23T05:13:50;15.20;99.90
30385;DHT22;17181;51.002;4.096;2022-07-23T05:16:19;15.40;99.90
30385;DHT22;17181;51.002;4.096;2022-07-23T05:18:45;15.50;99.90
30385;DHT22;17181;51.002;4.096;2022-07-23T05:21:11;15.60;99.90
30385;DHT22;17181;51.002;4.096;2022-07-23T05:23:37;15.60;99.90
30385;DHT22;17181;51.002;4.096;2022-07-23T05:26:03;15.80;99.90
30385;DHT22;17181;51.002;4.096;2022-07-23T05:28:32;16.00;99.90
30385;DHT22;17181;51.002;4.096;2022-07-23T05:31:02;16.00;99.90
30385;DHT22;17181;51.002;4.096;2022-07-23T05:33:30;16.20;99.90
30385;DHT22;17181;51.002;4.096;2022-07-23T05:36:03;16.20;99.90
30385;DHT22;17181;51.002;4.096;2022-07-23T05:38:32;16.20;99.90
30385;DHT22;17181;51.002;4.096;2022-07-23T05:40:59;16.30;99.90
30385;DHT22;17181;51.002;4.096;2022-07-23T05:43:25;16.40;99.90
30385;DHT22;17181;51.002;4.096;2022-07-23T05:45:52;16.40;99.90
30385;DHT22;17181;51.002;4.096;2022-07-23T05:48:19;16.50;99.90
30385;DHT22;17181;51.002;4.096;2022-07-23T05:50:58;16.60;99.90
30385;DHT22;17181;51.002;4.096;2022-07-23T05:53:29;16.70;99.90
30385;DHT22;17181;51.002;4.096;2022-07-23T05:56:09;16.80;99.90
30385;DHT22;17181;51.002;4.096;2022-07-23T05:58:36;16.80;99.90
30385;DHT22;17181;51.002;4.096;2022-07-23T06:01:02;16.90;99.90
30385;DHT22;17181;51.002;4.096;2022-07-23T06:03:34;17.00;99.90
30385;DHT22;17181;51.002;4.096;2022-07-23T06:06:00;17.00;99.90
30385;DHT22;17181;51.002;4.096;2022-07-23T06:08:26;17.10;99.90
30385;DHT22;17181;51.002;4.096;2022-07-23T06:10:52;17.10;99.90
30385;DHT22;17181;51.002;4.096;2022-07-23T06:13:18;17.30;99.90
30385;DHT22;17181;51.002;4.096;2022-07-23T06:15:44;17.30;99.90
30385;DHT22;17181;51.002;4.096;2022-07-23T06:18:10;17.50;99.90
30385;DHT22;17181;51.002;4.096;2022-07-23T06:20:38;17.60;99.90
30385;DHT22;17181;51.002;4.096;2022-07-23T06:23:04;17.70;99.90
30385;DHT22;17181;51.002;4.096;2022-07-23T06:25:30;17.80;99.90
30385;DHT22;17181;51.002;4.096;2022-07-23T06:27:56;17.90;99.90
30385;DHT22;17181;51.002;4.096;2022-07-23T06:30:22;17.90;99.90
30385;DHT22;17181;51.002;4.096;2022-07-23T06:32:48;18.10;99.90
30385;DHT22;17181;51.002;4.096;2022-07-23T06:35:15;18.20;99.90
30385;DHT22;17181;51.002;4.096;2022-07-23T06:37:41;18.40;99.90
30385;DHT22;17181;51.002;4.096;2022-07-23T06:40:08;18.50;99.90
30385;DHT22;17181;51.002;4.096;2022-07-23T06:42:36;18.60;99.90
30385;DHT22;17181;51.002;4.096;2022-07-23T06:45:08;18.70;99.90
30385;DHT22;17181;51.002;4.096;2022-07-23T06:47:36;18.80;99.90
30385;DHT22;17181;51.002;4.096;2022-07-23T06:50:02;18.90;99.90
30385;DHT22;17181;51.002;4.096;2022-07-23T06:52:28;19.00;99.90
30385;DHT22;17181;51.002;4.096;2022-07-23T06:54:54;19.10;99.90
30385;DHT22;17181;51.002;4.096;2022-07-23T06:57:20;19.20;99.90
30385;DHT22;17181;51.002;4.096;2022-07-23T06:59:46;19.30;99.90
30385;DHT22;17181;51.002;4.096;2022-07-23T07:02:12;19.40;99.90
30385;DHT22;17181;51.002;4.096;2022-07-23T07:04:38;19.50;99.90
30385;DHT22;17181;51.002;4.096;2022-07-23T07:07:04;19.60;99.90
30385;DHT22;17181;51.002;4.096;2022-07-23T07:09:29;19.70;99.90
30385;DHT22;17181;51.002;4.096;2022-07-23T07:11:55;19.90;99.90
30385;DHT22;17181;51.002;4.096;2022-07-23T07:14:22;20.00;99.90
30385;DHT22;17181;51.002;4.096;2022-07-23T07:16:48;20.10;99.90
30385;DHT22;17181;51.002;4.096;2022-07-23T07:19:13;20.10;99.90
30385;DHT22;17181;51.002;4.096;2022-07-23T07:21:39;20.20;99.90
30385;DHT22;17181;51.002;4.096;2022-07-23T07:24:05;20.30;99.90
30385;DHT22;17181;51.002;4.096;2022-07-23T07:26:32;20.40;99.90
30385;DHT22;17181;51.002;4.096;2022-07-23T07:28:59;20.50;99.90
30385;DHT22;17181;51.002;4.096;2022-07-23T07:31:25;20.50;99.90
30385;DHT22;17181;51.002;4.096;2022-07-23T07:33:51;20.60;99.90
30385;DHT22;17181;51.002;4.096;2022-07-23T07:36:17;20.70;99.90
30385;DHT22;17181;51.002;4.096;2022-07-23T07:38:42;20.80;99.90
30385;DHT22;17181;51.002;4.096;2022-07-23T07:41:08;20.90;99.90
30385;DHT22;17181;51.002;4.096;2022-07-23T07:43:36;21.00;99.90
30385;DHT22;17181;51.002;4.096;2022-07-23T07:46:03;21.00;99.90
30385;DHT22;17181;51.002;4.096;2022-07-23T07:48:29;21.10;99.90
30385;DHT22;17181;51.002;4.096;2022-07-23T07:50:55;21.20;99.90
30385;DHT22;17181;51.002;4.096;2022-07-23T07:53:21;21.20;99.90
30385;DHT22;17181;51.002;4.096;2022-07-23T07:55:47;21.30;99.90
30385;DHT22;17181;51.002;4.096;2022-07-23T07:58:13;21.30;99.90
30385;DHT22;17181;51.002;4.096;2022-07-23T08:00:38;21.40;99.90
30385;DHT22;17181;51.002;4.096;2022-07-23T08:03:04;21.50;99.90
30385;DHT22;17181;51.002;4.096;2022-07-23T08:05:30;21.60;99.90
30385;DHT22;17181;51.002;4.096;2022-07-23T08:07:57;21.70;99.90
30385;DHT22;17181;51.002;4.096;2022-07-23T08:10:24;21.70;99.90
30385;DHT22;17181;51.002;4.096;2022-07-23T08:12:55;21.80;99.90
30385;DHT22;17181;51.002;4.096;2022-07-23T08:15:23;21.80;99.90
30385;DHT22;17181;51.002;4.096;2022-07-23T08:17:49;21.90;99.90
30385;DHT22;17181;51.002;4.096;2022-07-23T08:20:17;22.00;99.90
30385;DHT22;17181;51.002;4.096;2022-07-23T08:23:00;22.10;99.90
30385;DHT22;17181;51.002;4.096;2022-07-23T08:25:30;22.10;99.90
30385;DHT22;17181;51.002;4.096;2022-07-23T08:27:58;22.30;99.90
30385;DHT22;17181;51.002;4.096;2022-07-23T08:30:24;22.30;99.90
30385;DHT22;17181;51.002;4.096;2022-07-23T08:32:59;22.50;99.90
30385;DHT22;17181;51.002;4.096;2022-07-23T08:35:35;22.60;99.90
30385;DHT22;17181;51.002;4.096;2022-07-23T08:38:05;22.70;99.90
30385;DHT22;17181;51.002;4.096;2022-07-23T08:40:33;22.80;99.90
30385;DHT22;17181;51.002;4.096;2022-07-23T08:42:59;22.90;99.90
30385;DHT22;17181;51.002;4.096;2022-07-23T08:45:27;23.00;99.90
30385;DHT22;17181;51.002;4.096;2022-07-23T08:47:55;23.00;99.90
30385;DHT22;17181;51.002;4.096;2022-07-23T08:50:23;23.10;99.90
30385;DHT22;17181;51.002;4.096;2022-07-23T08:52:50;23.20;99.90
30385;DHT22;17181;51.002;4.096;2022-07-23T08:55:21;23.30;99.90
30385;DHT22;17181;51.002;4.096;2022-07-23T08:57:51;23.50;99.90
30385;DHT22;17181;51.002;4.096;2022-07-23T09:00:18;23.50;99.90
30385;DHT22;17181;51.002;4.096;2022-07-23T09:02:46;23.60;99.90
30385;DHT22;17181;51.002;4.096;2022-07-23T09:05:13;23.70;99.90
30385;DHT22;17181;51.002;4.096;2022-07-23T09:08:12;23.90;99.90
30385;DHT22;17181;51.002;4.096;2022-07-23T09:13:25;24.10;99.90
30385;DHT22;17181;51.002;4.096;2022-07-23T09:15:53;24.20;99.90
30385;DHT22;17181;51.002;4.096;2022-07-23T09:18:27;24.30;99.90
30385;DHT22;17181;51.002;4.096;2022-07-23T09:26:18;24.40;99.10
30385;DHT22;17181;51.002;4.096;2022-07-23T09:28:51;24.40;98.80
30385;DHT22;17181;51.002;4.096;2022-07-23T09:31:18;24.40;98.50
30385;DHT22;17181;51.002;4.096;2022-07-23T09:33:44;24.40;98.30
30385;DHT22;17181;51.002;4.096;2022-07-23T09:36:10;24.50;97.90
30385;DHT22;17181;51.002;4.096;2022-07-23T09:38:50;24.50;97.20
30385;DHT22;17181;51.002;4.096;2022-07-23T09:41:16;24.50;96.00
30385;DHT22;17181;51.002;4.096;2022-07-23T09:43:42;24.40;95.80
30385;DHT22;17181;51.002;4.096;2022-07-23T09:46:22;24.40;96.00
30385;DHT22;17181;51.002;4.096;2022-07-23T09:48:55;24.40;95.30
30385;DHT22;17181;51.002;4.096;2022-07-23T09:51:24;24.40;94.60
30385;DHT22;17181;51.002;4.096;2022-07-23T09:53:54;24.30;94.40
30385;DHT22;17181;51.002;4.096;2022-07-23T09:56:20;24.20;94.20
30385;DHT22;17181;51.002;4.096;2022-07-23T09:58:50;24.10;94.30
30385;DHT22;17181;51.002;4.096;2022-07-23T10:01:17;24.10;94.30
30385;DHT22;17181;51.002;4.096;2022-07-23T10:03:43;24.20;94.20
30385;DHT22;17181;51.002;4.096;2022-07-23T10:06:40;24.10;94.00
30385;DHT22;17181;51.002;4.096;2022-07-23T10:09:33;24.20;93.80
30385;DHT22;17181;51.002;4.096;2022-07-23T10:12:25;24.30;93.80
30385;DHT22;17181;51.002;4.096;2022-07-23T10:15:10;24.30;93.80
30385;DHT22;17181;51.002;4.096;2022-07-23T10:17:36;24.50;93.60
30385;DHT22;17181;51.002;4.096;2022-07-23T10:20:03;24.60;93.20
30385;DHT22;17181;51.002;4.096;2022-07-23T10:22:33;24.80;92.90
30385;DHT22;17181;51.002;4.096;2022-07-23T10:33:29;25.20;91.00
30385;DHT22;17181;51.002;4.096;2022-07-23T10:36:04;25.30;90.90
30385;DHT22;17181;51.002;4.096;2022-07-23T10:38:42;25.40;90.50
30385;DHT22;17181;51.002;4.096;2022-07-23T10:41:09;25.40;90.20
30385;DHT22;17181;51.002;4.096;2022-07-23T10:43:35;25.40;89.50
30385;DHT22;17181;51.002;4.096;2022-07-23T10:46:20;25.40;89.30
30385;DHT22;17181;51.002;4.096;2022-07-23T10:49:26;25.40;88.90
30385;DHT22;17181;51.002;4.096;2022-07-23T10:54:44;25.40;88.50
30385;DHT22;17181;51.002;4.096;2022-07-23T10:57:12;25.50;88.30
30385;DHT22;17181;51.002;4.096;2022-07-23T11:02:28;25.40;86.70
30385;DHT22;17181;51.002;4.096;2022-07-23T11:04:59;25.40;86.80
30385;DHT22;17181;51.002;4.096;2022-07-23T11:07:26;25.40;85.80
30385;DHT22;17181;51.002;4.096;2022-07-23T11:09:52;25.30;85.80
30385;DHT22;17181;51.002;4.096;2022-07-23T11:15:11;25.30;84.50
30385;DHT22;17181;51.002;4.096;2022-07-23T11:17:58;25.40;84.00
30385;DHT22;17181;51.002;4.096;2022-07-23T11:20:25;25.40;83.20
30385;DHT22;17181;51.002;4.096;2022-07-23T11:22:56;25.40;82.90
30385;DHT22;17181;51.002;4.096;2022-07-23T11:27:50;25.40;80.50
30385;DHT22;17181;51.002;4.096;2022-07-23T11:32:52;25.40;78.80
30385;DHT22;17181;51.002;4.096;2022-07-23T11:35:27;25.40;79.00
30385;DHT22;17181;51.002;4.096;2022-07-23T11:38:21;25.40;79.00
30385;DHT22;17181;51.002;4.096;2022-07-23T11:40:53;25.40;77.90
30385;DHT22;17181;51.002;4.096;2022-07-23T11:43:20;25.40;77.70
30385;DHT22;17181;51.002;4.096;2022-07-23T11:45:51;25.50;78.00
30385;DHT22;17181;51.002;4.096;2022-07-23T11:48:20;25.60;77.60
30385;DHT22;17181;51.002;4.096;2022-07-23T11:50:47;25.70;78.00
30385;DHT22;17181;51.002;4.096;2022-07-23T11:53:13;25.80;78.20
30385;DHT22;17181;51.002;4.096;2022-07-23T11:55:39;25.80;78.00
30385;DHT22;17181;51.002;4.096;2022-07-23T11:58:05;25.90;77.70
30385;DHT22;17181;51.002;4.096;2022-07-23T12:00:31;25.90;77.40
30385;DHT22;17181;51.002;4.096;2022-07-23T12:03:00;26.00;77.30
30385;DHT22;17181;51.002;4.096;2022-07-23T12:05:29;26.10;77.30
30385;DHT22;17181;51.002;4.096;2022-07-23T12:07:56;26.20;77.30
30385;DHT22;17181;51.002;4.096;2022-07-23T12:13:00;26.40;76.30
30385;DHT22;17181;51.002;4.096;2022-07-23T12:15:31;26.40;75.40
30385;DHT22;17181;51.002;4.096;2022-07-23T12:18:01;26.60;75.60
30385;DHT22;17181;51.002;4.096;2022-07-23T12:20:33;26.70;75.50
30385;DHT22;17181;51.002;4.096;2022-07-23T12:23:02;26.80;74.80
30385;DHT22;17181;51.002;4.096;2022-07-23T12:25:30;27.00;75.50
30385;DHT22;17181;51.002;4.096;2022-07-23T12:28:03;27.00;73.50
30385;DHT22;17181;51.002;4.096;2022-07-23T12:33:03;27.30;73.60
30385;DHT22;17181;51.002;4.096;2022-07-23T12:35:38;27.30;71.80
30385;DHT22;17181;51.002;4.096;2022-07-23T12:38:10;27.30;71.70
30385;DHT22;17181;51.002;4.096;2022-07-23T12:40:41;27.40;71.80
30385;DHT22;17181;51.002;4.096;2022-07-23T12:43:33;27.50;70.60
30385;DHT22;17181;51.002;4.096;2022-07-23T12:46:07;27.50;70.70
30385;DHT22;17181;51.002;4.096;2022-07-23T12:48:51;27.70;71.00
30385;DHT22;17181;51.002;4.096;2022-07-23T12:51:28;27.90;71.00
30385;DHT22;17181;51.002;4.096;2022-07-23T12:53:58;28.00;70.60
30385;DHT22;17181;51.002;4.096;2022-07-23T12:56:30;28.20;70.50
30385;DHT22;17181;51.002;4.096;2022-07-23T12:59:14;28.40;68.50
30385;DHT22;17181;51.002;4.096;2022-07-23T13:01:54;28.40;68.40
30385;DHT22;17181;51.002;4.096;2022-07-23T13:04:21;28.40;68.90
30385;DHT22;17181;51.002;4.096;2022-07-23T13:06:48;28.40;67.90
30385;DHT22;17181;51.002;4.096;2022-07-23T13:09:22;28.40;67.90
30385;DHT22;17181;51.002;4.096;2022-07-23T13:11:49;28.60;67.90
30385;DHT22;17181;51.002;4.096;2022-07-23T13:14:16;28.70;68.10
30385;DHT22;17181;51.002;4.096;2022-07-23T13:16:43;28.90;66.50
30385;DHT22;17181;51.002;4.096;2022-07-23T13:19:10;29.10;67.40
30385;DHT22;17181;51.002;4.096;2022-07-23T13:21:36;29.60;67.80
30385;DHT22;17181;51.002;4.096;2022-07-23T13:24:02;30.20;67.60
30385;DHT22;17181;51.002;4.096;2022-07-23T13:26:28;30.70;65.10
30385;DHT22;17181;51.002;4.096;2022-07-23T13:28:54;31.50;65.00
30385;DHT22;17181;51.002;4.096;2022-07-23T13:31:20;32.00;64.40
30385;DHT22;17181;51.002;4.096;2022-07-23T13:33:47;32.40;63.00
30385;DHT22;17181;51.002;4.096;2022-07-23T13:36:13;32.90;62.50
30385;DHT22;17181;51.002;4.096;2022-07-23T13:38:39;33.40;61.40
30385;DHT22;17181;51.002;4.096;2022-07-23T13:41:05;33.80;60.10
30385;DHT22;17181;51.002;4.096;2022-07-23T13:43:31;34.10;59.60
30385;DHT22;17181;51.002;4.096;2022-07-23T13:45:57;34.50;57.00
30385;DHT22;17181;51.002;4.096;2022-07-23T13:48:24;34.70;56.50
30385;DHT22;17181;51.002;4.096;2022-07-23T13:50:50;34.90;56.30
30385;DHT22;17181;51.002;4.096;2022-07-23T13:53:22;35.00;54.70
30385;DHT22;17181;51.002;4.096;2022-07-23T13:55:50;34.90;52.70
30385;DHT22;17181;51.002;4.096;2022-07-23T13:58:16;35.10;52.70
30385;DHT22;17181;51.002;4.096;2022-07-23T14:00:46;35.10;50.30
30385;DHT22;17181;51.002;4.096;2022-07-23T14:03:12;35.30;49.50
30385;DHT22;17181;51.002;4.096;2022-07-23T14:05:38;35.40;49.10
30385;DHT22;17181;51.002;4.096;2022-07-23T14:08:05;35.80;50.10
30385;DHT22;17181;51.002;4.096;2022-07-23T14:10:31;36.20;48.70
30385;DHT22;17181;51.002;4.096;2022-07-23T14:12:57;36.50;46.80
30385;DHT22;17181;51.002;4.096;2022-07-23T14:15:26;36.50;45.60
30385;DHT22;17181;51.002;4.096;2022-07-23T14:17:52;36.50;46.90
30385;DHT22;17181;51.002;4.096;2022-07-23T14:20:19;36.60;45.80
30385;DHT22;17181;51.002;4.096;2022-07-23T14:22:45;36.50;46.40
30385;DHT22;17181;51.002;4.096;2022-07-23T14:25:12;36.60;46.90
30385;DHT22;17181;51.002;4.096;2022-07-23T14:27:39;36.50;45.70
30385;DHT22;17181;51.002;4.096;2022-07-23T14:30:07;36.40;45.50
30385;DHT22;17181;51.002;4.096;2022-07-23T14:32:34;35.90;44.90
30385;DHT22;17181;51.002;4.096;2022-07-23T14:35:02;35.40;45.30
30385;DHT22;17181;51.002;4.096;2022-07-23T14:37:28;35.30;45.90
30385;DHT22;17181;51.002;4.096;2022-07-23T14:39:54;35.40;46.20
30385;DHT22;17181;51.002;4.096;2022-07-23T14:42:20;35.40;45.80
30385;DHT22;17181;51.002;4.096;2022-07-23T14:44:47;35.50;46.20
30385;DHT22;17181;51.002;4.096;2022-07-23T14:47:14;35.70;45.80
30385;DHT22;17181;51.002;4.096;2022-07-23T14:49:41;35.80;45.90
30385;DHT22;17181;51.002;4.096;2022-07-23T14:52:08;36.00;45.40
30385;DHT22;17181;51.002;4.096;2022-07-23T14:54:34;36.20;45.20
30385;DHT22;17181;51.002;4.096;2022-07-23T14:57:02;36.50;45.60
30385;DHT22;17181;51.002;4.096;2022-07-23T14:59:29;37.10;44.70
30385;DHT22;17181;51.002;4.096;2022-07-23T15:01:57;37.60;44.50
30385;DHT22;17181;51.002;4.096;2022-07-23T15:04:24;38.10;44.40
30385;DHT22;17181;51.002;4.096;2022-07-23T15:06:51;38.70;43.70
30385;DHT22;17181;51.002;4.096;2022-07-23T15:09:18;39.20;42.50
30385;DHT22;17181;51.002;4.096;2022-07-23T15:11:44;39.60;41.80
30385;DHT22;17181;51.002;4.096;2022-07-23T15:14:11;39.70;40.80
30385;DHT22;17181;51.002;4.096;2022-07-23T15:16:37;40.00;41.30
30385;DHT22;17181;51.002;4.096;2022-07-23T15:19:03;40.30;41.20
30385;DHT22;17181;51.002;4.096;2022-07-23T15:21:30;40.70;39.60
30385;DHT22;17181;51.002;4.096;2022-07-23T15:23:57;40.80;38.70
30385;DHT22;17181;51.002;4.096;2022-07-23T15:26:28;40.70;38.10
30385;DHT22;17181;51.002;4.096;2022-07-23T15:28:56;40.50;37.50
30385;DHT22;17181;51.002;4.096;2022-07-23T15:31:22;40.20;37.80
30385;DHT22;17181;51.002;4.096;2022-07-23T15:33:55;40.10;38.50
30385;DHT22;17181;51.002;4.096;2022-07-23T15:36:22;39.90;38.00
30385;DHT22;17181;51.002;4.096;2022-07-23T15:38:49;39.70;37.70
30385;DHT22;17181;51.002;4.096;2022-07-23T15:41:16;39.70;37.50
30385;DHT22;17181;51.002;4.096;2022-07-23T15:43:43;39.60;37.70
30385;DHT22;17181;51.002;4.096;2022-07-23T15:46:09;39.50;37.80
30385;DHT22;17181;51.002;4.096;2022-07-23T15:48:37;39.70;38.20
30385;DHT22;17181;51.002;4.096;2022-07-23T15:51:05;39.80;37.80
30385;DHT22;17181;51.002;4.096;2022-07-23T15:53:33;40.00;38.30
30385;DHT22;17181;51.002;4.096;2022-07-23T15:56:00;40.50;36.90
30385;DHT22;17181;51.002;4.096;2022-07-23T15:58:28;40.40;35.90
30385;DHT22;17181;51.002;4.096;2022-07-23T16:00:55;40.30;36.10
30385;DHT22;17181;51.002;4.096;2022-07-23T16:03:22;40.30;36.40
30385;DHT22;17181;51.002;4.096;2022-07-23T16:05:48;40.30;36.50
30385;DHT22;17181;51.002;4.096;2022-07-23T16:08:15;40.20;36.80
30385;DHT22;17181;51.002;4.096;2022-07-23T16:10:41;40.30;36.70
30385;DHT22;17181;51.002;4.096;2022-07-23T16:13:09;40.20;36.40